Time;durP1;ratioP1;P1;durP2;ratioP2;P2;SDS_P1;SDS_P2;PMS_P1;PMS_P2;Temp;Humidity;BMP_temperature;BMP_pressure;BME280_temperature;BME280_humidity;BME280_pressure;Samples;Min_cycle;Max_cycle;Signal;HPM_P1;HPM_P2
2021/07/11 00:01:47;;;;;;;14.02;11.65;;;25.20;99.90;;;;;;5062722;28;20592;-89
2021/07/11 00:04:13;;;;;;;15.88;12.95;;;25.20;99.90;;;;;;5075665;28;20031;-89
2021/07/11 00:06:39;;;;;;;12.95;11.45;;;25.20;99.90;;;;;;5042095;28;20024;-89
2021/07/11 00:09:08;;;;;;;15.60;12.65;;;25.20;99.90;;;;;;5076968;28;20032;-88
2021/07/11 00:11:34;;;;;;;16.40;13.10;;;25.20;99.90;;;;;;5066984;28;20076;-90
2021/07/11 00:14:01;;;;;;;16.75;13.52;;;25.20;99.90;;;;;;5103545;28;20043;-88
2021/07/11 00:16:31;;;;;;;15.50;13.70;;;25.20;99.90;;;;;;5097677;28;20039;-89
2021/07/11 00:18:57;;;;;;;19.05;15.30;;;25.20;99.90;;;;;;5079155;28;20081;-89
2021/07/11 00:21:22;;;;;;;16.83;13.95;;;25.20;99.90;;;;;;5079260;28;20031;-89
2021/07/11 00:23:48;;;;;;;16.25;13.25;;;25.20;99.90;;;;;;5078958;28;20055;-89
2021/07/11 00:26:14;;;;;;;18.98;15.05;;;25.20;99.90;;;;;;5097790;28;20024;-89
2021/07/11 00:28:40;;;;;;;17.50;14.80;;;25.20;99.90;;;;;;5097101;28;20028;-89
2021/07/11 00:31:05;;;;;;;17.50;15.07;;;25.20;99.90;;;;;;5079338;28;20414;-89
2021/07/11 00:33:31;;;;;;;17.98;15.00;;;25.10;99.90;;;;;;5062508;28;20545;-90
2021/07/11 00:35:57;;;;;;;18.10;15.65;;;25.20;99.90;;;;;;5062754;28;20059;-89
2021/07/11 00:38:23;;;;;;;19.95;16.10;;;25.20;99.90;;;;;;5045585;28;20055;-89
2021/07/11 00:40:49;;;;;;;18.95;15.25;;;25.20;99.90;;;;;;5096929;28;20103;-89
2021/07/11 00:43:16;;;;;;;21.83;16.88;;;25.10;99.90;;;;;;5096789;28;20024;-89
2021/07/11 00:45:42;;;;;;;17.08;15.05;;;25.10;99.90;;;;;;5078448;28;20047;-89
2021/07/11 00:48:08;;;;;;;18.80;16.75;;;25.10;99.90;;;;;;5078201;28;20482;-89
2021/07/11 00:50:34;;;;;;;20.67;16.75;;;25.10;99.90;;;;;;5078564;28;20031;-89
2021/07/11 00:53:00;;;;;;;17.70;15.63;;;25.10;99.90;;;;;;5078533;28;20478;-89
2021/07/11 00:55:26;;;;;;;20.90;17.50;;;25.10;99.90;;;;;;5061881;28;20082;-89
2021/07/11 00:57:52;;;;;;;19.20;16.30;;;25.10;99.90;;;;;;5078494;28;20024;-89
2021/07/11 01:00:18;;;;;;;19.95;16.60;;;25.10;99.90;;;;;;5078299;28;20112;-89
2021/07/11 01:02:50;;;;;;;21.25;17.48;;;25.10;99.90;;;;;;5061515;28;20054;-89
2021/07/11 01:05:16;;;;;;;21.35;17.88;;;25.10;99.90;;;;;;5096470;28;20116;-89
2021/07/11 01:08:05;;;;;;;20.75;17.45;;;25.10;99.90;;;;;;5045004;28;20036;-89
2021/07/11 01:10:37;;;;;;;20.27;17.23;;;25.10;99.90;;;;;;5032104;28;20089;-89
2021/07/11 01:13:06;;;;;;;22.90;18.48;;;25.10;99.90;;;;;;5074879;28;20494;-89
2021/07/11 01:15:32;;;;;;;21.85;17.80;;;25.10;99.90;;;;;;5059914;28;20097;-89
2021/07/11 01:18:04;;;;;;;22.42;18.02;;;25.10;99.90;;;;;;5081392;28;20058;-89
2021/07/11 01:20:53;;;;;;;21.98;18.08;;;25.10;99.90;;;;;;5085557;28;20107;-89
2021/07/11 01:23:39;;;;;;;21.05;17.88;;;25.10;99.90;;;;;;5074620;28;20029;-89
2021/07/11 01:26:08;;;;;;;20.42;17.88;;;25.00;99.90;;;;;;5075564;28;20028;-89
2021/07/11 01:28:34;;;;;;;20.73;17.30;;;25.00;99.90;;;;;;5074718;28;20036;-89
2021/07/11 01:31:00;;;;;;;18.52;16.05;;;25.00;99.90;;;;;;5075671;28;20035;-89
2021/07/11 01:33:29;;;;;;;21.55;18.00;;;25.00;99.90;;;;;;5058029;28;20043;-89
2021/07/11 01:35:55;;;;;;;19.40;16.23;;;25.00;99.90;;;;;;5076175;28;20035;-89
2021/07/11 01:38:22;;;;;;;20.67;17.13;;;25.00;99.90;;;;;;5074582;28;20182;-89
2021/07/11 01:40:49;;;;;;;21.23;16.67;;;25.00;99.90;;;;;;5041302;28;20029;-89
2021/07/11 01:43:20;;;;;;;20.75;17.40;;;25.00;99.90;;;;;;5076479;28;20024;-89
2021/07/11 01:45:51;;;;;;;20.27;17.20;;;25.10;99.90;;;;;;5078868;28;20067;-88
2021/07/11 01:48:17;;;;;;;20.27;17.02;;;25.10;99.90;;;;;;5084569;28;20063;-88
2021/07/11 01:50:46;;;;;;;20.33;16.83;;;25.10;99.90;;;;;;5081619;28;20032;-89
2021/07/11 01:53:13;;;;;;;19.17;16.55;;;25.10;99.90;;;;;;5058384;28;20029;-88
2021/07/11 01:55:39;;;;;;;21.20;17.45;;;25.00;99.90;;;;;;5074225;28;20116;-88
2021/07/11 01:58:04;;;;;;;20.92;18.52;;;25.10;99.90;;;;;;5073945;28;20036;-88
2021/07/11 02:00:31;;;;;;;19.42;16.58;;;25.10;99.90;;;;;;5057211;28;20059;-89
2021/07/11 02:02:57;;;;;;;20.20;17.33;;;25.10;99.90;;;;;;5073805;28;20036;-88
2021/07/11 02:05:22;;;;;;;19.85;17.40;;;25.00;99.90;;;;;;5057612;28;20186;-89
2021/07/11 02:07:48;;;;;;;20.50;17.30;;;25.10;99.90;;;;;;5056750;28;20541;-88
2021/07/11 02:10:16;;;;;;;21.83;18.00;;;25.10;99.90;;;;;;5056992;28;20391;-88
2021/07/11 02:12:47;;;;;;;19.95;16.52;;;25.00;99.90;;;;;;5089545;28;20051;-90
2021/07/11 02:15:13;;;;;;;20.92;18.23;;;25.00;99.90;;;;;;5077061;28;20489;-88
2021/07/11 02:17:44;;;;;;;22.15;18.65;;;25.10;99.90;;;;;;5076850;28;20036;-88
2021/07/11 02:20:10;;;;;;;23.27;19.30;;;25.00;99.90;;;;;;5077727;28;20024;-88
2021/07/11 02:22:42;;;;;;;22.73;18.48;;;25.10;99.90;;;;;;5082418;28;20512;-88
2021/07/11 02:25:09;;;;;;;21.17;18.08;;;25.10;99.90;;;;;;5104583;28;20050;-88
2021/07/11 02:27:36;;;;;;;21.83;18.17;;;25.00;99.90;;;;;;5085922;28;20043;-88
2021/07/11 02:30:11;;;;;;;23.10;19.35;;;25.10;99.90;;;;;;5095205;28;20116;-88
2021/07/11 02:32:42;;;;;;;22.25;18.40;;;25.00;99.90;;;;;;5076741;28;20028;-88
2021/07/11 02:35:08;;;;;;;20.92;18.23;;;25.00;99.90;;;;;;5060816;28;20024;-88
2021/07/11 02:37:35;;;;;;;23.73;19.85;;;25.00;99.90;;;;;;5076431;28;20055;-88
2021/07/11 02:40:00;;;;;;;22.38;18.73;;;25.00;99.90;;;;;;5076622;28;20031;-88
2021/07/11 02:42:27;;;;;;;22.67;19.02;;;25.00;99.90;;;;;;5059969;28;20032;-88
2021/07/11 02:44:54;;;;;;;21.98;18.65;;;25.00;99.90;;;;;;5076464;28;20043;-88
2021/07/11 02:47:28;;;;;;;22.23;18.90;;;25.00;99.90;;;;;;5076638;28;20343;-88
2021/07/11 02:49:58;;;;;;;24.13;19.88;;;25.00;99.90;;;;;;5076471;28;20024;-88
2021/07/11 02:52:25;;;;;;;22.40;19.20;;;25.00;99.90;;;;;;5076395;28;20530;-88
2021/07/11 02:55:03;;;;;;;21.88;18.58;;;25.00;99.90;;;;;;5094399;28;20112;-89
2021/07/11 02:57:31;;;;;;;21.85;18.83;;;25.00;99.90;;;;;;5073790;28;20032;-88
2021/07/11 02:59:58;;;;;;;21.33;18.23;;;25.00;99.90;;;;;;5094180;28;20114;-89
2021/07/11 03:02:26;;;;;;;22.52;18.70;;;25.00;99.90;;;;;;5076046;28;20036;-89
2021/07/11 03:04:53;;;;;;;22.55;19.20;;;25.00;99.90;;;;;;5075853;28;20028;-89
2021/07/11 03:07:19;;;;;;;22.77;19.45;;;25.00;99.90;;;;;;5059376;28;20059;-89
2021/07/11 03:09:45;;;;;;;22.75;18.85;;;25.00;99.90;;;;;;5076379;28;20038;-89
2021/07/11 03:12:12;;;;;;;22.42;18.88;;;25.00;99.90;;;;;;5093639;28;20463;-88
2021/07/11 03:14:38;;;;;;;21.98;19.15;;;25.00;99.90;;;;;;5075820;28;20516;-89
2021/07/11 03:17:06;;;;;;;23.00;19.50;;;25.00;99.90;;;;;;5075897;28;20020;-89
2021/07/11 03:19:37;;;;;;;22.55;18.98;;;25.00;99.90;;;;;;5059724;28;20125;-89
2021/07/11 03:22:05;;;;;;;25.42;19.95;;;25.00;99.90;;;;;;5076401;28;20028;-89
2021/07/11 03:24:31;;;;;;;21.77;19.00;;;25.00;99.90;;;;;;5076678;28;20055;-88
2021/07/11 03:26:58;;;;;;;23.95;20.35;;;25.00;99.90;;;;;;5042983;28;20028;-89
2021/07/11 03:29:39;;;;;;;22.55;19.27;;;25.00;99.90;;;;;;5082984;28;20032;-89
2021/07/11 03:32:07;;;;;;;25.02;20.90;;;25.00;99.90;;;;;;5084023;28;20050;-89
2021/07/11 03:34:33;;;;;;;23.38;20.27;;;25.00;99.90;;;;;;5089721;28;20024;-89
2021/07/11 03:37:07;;;;;;;23.20;19.42;;;25.00;99.90;;;;;;5100382;28;20046;-89
2021/07/11 03:39:38;;;;;;;23.60;19.48;;;25.00;99.90;;;;;;5089149;28;20028;-89
2021/07/11 03:42:06;;;;;;;22.35;19.17;;;25.00;99.90;;;;;;5094488;28;20041;-88
2021/07/11 03:44:35;;;;;;;20.98;18.42;;;25.00;99.90;;;;;;5075681;28;20024;-89
2021/07/11 03:47:04;;;;;;;22.83;18.95;;;25.00;99.90;;;;;;5094364;28;20028;-89
2021/07/11 03:49:31;;;;;;;22.00;19.60;;;25.00;99.90;;;;;;5079860;28;20039;-88
2021/07/11 03:52:02;;;;;;;24.20;19.98;;;25.00;99.90;;;;;;5063774;28;20032;-89
2021/07/11 03:54:31;;;;;;;22.52;19.15;;;25.00;99.90;;;;;;5079788;28;20025;-89
2021/07/11 03:56:58;;;;;;;22.10;18.95;;;25.00;99.90;;;;;;5078932;28;20089;-89
2021/07/11 03:59:25;;;;;;;23.38;19.33;;;25.00;99.90;;;;;;5079683;28;20047;-88
2021/07/11 04:01:52;;;;;;;22.05;18.33;;;25.00;99.90;;;;;;5079714;28;20028;-89
2021/07/11 04:04:20;;;;;;;21.30;18.60;;;25.00;99.90;;;;;;5079313;28;20028;-89
2021/07/11 04:06:51;;;;;;;20.63;17.23;;;25.00;99.90;;;;;;5063249;28;20119;-88
2021/07/11 04:09:19;;;;;;;20.05;17.38;;;25.00;99.90;;;;;;5097053;28;20036;-88
2021/07/11 04:11:46;;;;;;;21.70;18.73;;;25.00;99.90;;;;;;5079700;28;20125;-89
2021/07/11 04:14:18;;;;;;;21.33;17.10;;;25.00;99.90;;;;;;5079593;28;20443;-89
2021/07/11 04:16:47;;;;;;;20.65;17.67;;;25.00;99.90;;;;;;5079651;28;20093;-89
2021/07/11 04:19:19;;;;;;;21.25;17.40;;;25.00;99.90;;;;;;5098333;28;20028;-88
2021/07/11 04:21:49;;;;;;;21.48;16.73;;;25.00;99.90;;;;;;5080195;28;20425;-89
2021/07/11 04:24:14;;;;;;;19.55;16.73;;;25.00;99.90;;;;;;5079605;28;20035;-89
2021/07/11 04:26:42;;;;;;;18.45;16.40;;;25.00;99.90;;;;;;5097851;28;20095;-89
2021/07/11 04:29:07;;;;;;;20.20;16.30;;;25.00;99.90;;;;;;5063156;28;20064;-89
2021/07/11 04:31:33;;;;;;;18.88;16.80;;;25.00;99.90;;;;;;5048638;28;20047;-89
2021/07/11 04:34:30;;;;;;;20.27;16.88;;;25.00;99.90;;;;;;5083733;28;20028;-94
2021/07/11 04:36:57;;;;;;;17.77;15.48;;;25.00;99.90;;;;;;5071556;28;20028;-89
2021/07/11 04:39:23;;;;;;;16.77;14.98;;;25.00;99.90;;;;;;5074035;28;20028;-90
2021/07/11 04:41:49;;;;;;;17.77;15.55;;;25.00;99.90;;;;;;5076797;28;20024;-89
2021/07/11 04:44:16;;;;;;;18.05;15.18;;;25.00;99.90;;;;;;5062595;28;20431;-89
2021/07/11 04:46:42;;;;;;;16.95;15.15;;;25.00;99.90;;;;;;5097354;28;20103;-89
2021/07/11 04:49:07;;;;;;;17.17;14.73;;;25.00;99.90;;;;;;5061984;28;20549;-89
2021/07/11 04:51:33;;;;;;;18.58;15.13;;;25.00;99.90;;;;;;5078760;28;20027;-89
2021/07/11 04:53:59;;;;;;;15.82;14.13;;;25.00;99.90;;;;;;5062548;28;20051;-89
2021/07/11 04:56:25;;;;;;;15.93;13.32;;;25.00;99.90;;;;;;5079229;28;20527;-89
2021/07/11 04:58:51;;;;;;;17.60;15.13;;;25.00;99.90;;;;;;5063305;28;20089;-89
2021/07/11 05:01:16;;;;;;;17.38;14.65;;;25.00;99.90;;;;;;5066372;28;20395;-89
2021/07/11 05:03:42;;;;;;;16.73;14.25;;;25.00;99.90;;;;;;5088060;28;20097;-89
2021/07/11 05:06:08;;;;;;;16.48;14.20;;;25.00;99.90;;;;;;5088655;28;20084;-88
2021/07/11 05:08:33;;;;;;;16.30;14.07;;;25.00;99.90;;;;;;5078911;28;20559;-88
2021/07/11 05:10:59;;;;;;;14.13;12.63;;;25.00;99.90;;;;;;5062209;28;20028;-89
2021/07/11 05:13:25;;;;;;;15.70;13.30;;;25.00;99.90;;;;;;5082415;28;20076;-89
2021/07/11 05:15:51;;;;;;;15.43;13.10;;;25.00;99.90;;;;;;5067852;28;20081;-90
2021/07/11 05:18:16;;;;;;;15.02;13.00;;;25.00;99.90;;;;;;5061860;28;20549;-88
2021/07/11 05:20:42;;;;;;;15.50;13.35;;;25.00;99.90;;;;;;5078886;28;20504;-88
2021/07/11 05:23:08;;;;;;;14.35;12.35;;;25.00;99.90;;;;;;5061992;28;20351;-87
2021/07/11 05:25:33;;;;;;;14.48;12.35;;;25.00;99.90;;;;;;5078630;28;20020;-89
2021/07/11 05:28:00;;;;;;;14.27;12.77;;;25.00;99.90;;;;;;5078963;28;20135;-88
2021/07/11 05:30:26;;;;;;;12.90;11.20;;;25.00;99.90;;;;;;5080024;28;20143;-89
2021/07/11 05:32:51;;;;;;;13.93;12.43;;;25.00;99.90;;;;;;5096464;28;20063;-91
2021/07/11 05:35:17;;;;;;;13.90;11.65;;;25.00;99.90;;;;;;5078112;28;20111;-87
2021/07/11 05:37:43;;;;;;;12.20;10.70;;;25.00;99.90;;;;;;5077574;28;20036;-88
2021/07/11 05:40:09;;;;;;;11.70;10.48;;;25.00;99.90;;;;;;5060923;28;20522;-87
2021/07/11 05:42:34;;;;;;;12.18;10.85;;;25.00;99.90;;;;;;5061092;28;20359;-86
2021/07/11 05:45:01;;;;;;;11.98;10.40;;;25.00;99.90;;;;;;5096607;28;20032;-86
2021/07/11 05:47:26;;;;;;;12.88;10.65;;;25.10;99.90;;;;;;5079208;28;20039;-87
2021/07/11 05:49:52;;;;;;;11.50;10.32;;;25.10;99.90;;;;;;5078042;28;20024;-87
2021/07/11 05:52:18;;;;;;;11.40;10.13;;;25.10;99.90;;;;;;5077374;28;20039;-87
2021/07/11 05:54:43;;;;;;;12.43;10.95;;;25.10;99.90;;;;;;5077442;28;20050;-87
2021/07/11 05:57:09;;;;;;;12.30;10.52;;;25.10;99.90;;;;;;5095264;28;20064;-90
2021/07/11 05:59:35;;;;;;;11.38;10.18;;;25.10;99.90;;;;;;5077391;28;20391;-87
2021/07/11 06:02:01;;;;;;;11.65;10.45;;;25.10;99.90;;;;;;5060744;28;20077;-87
2021/07/11 06:04:26;;;;;;;11.30;10.10;;;25.10;99.90;;;;;;5079103;28;20032;-87
2021/07/11 06:06:52;;;;;;;11.20;10.00;;;25.10;99.90;;;;;;5060538;28;20032;-87
2021/07/11 06:09:17;;;;;;;10.63;9.50;;;25.10;99.90;;;;;;5095240;28;20051;-87
2021/07/11 06:11:43;;;;;;;9.90;8.90;;;25.10;99.90;;;;;;5076805;28;20028;-87
2021/07/11 06:14:09;;;;;;;11.85;10.15;;;25.10;99.90;;;;;;5077443;28;20028;-86
2021/07/11 06:16:35;;;;;;;10.05;8.88;;;25.10;99.90;;;;;;5077255;28;20461;-87
2021/07/11 06:19:00;;;;;;;10.82;9.63;;;25.10;99.90;;;;;;5060341;28;20466;-87
2021/07/11 06:21:26;;;;;;;11.60;9.95;;;25.10;99.90;;;;;;5043182;28;20032;-86
2021/07/11 06:23:52;;;;;;;10.77;9.52;;;25.10;99.90;;;;;;5043699;28;20030;-86
2021/07/11 06:26:17;;;;;;;11.30;9.95;;;25.10;99.90;;;;;;5076804;28;20032;-87
2021/07/11 06:28:43;;;;;;;10.63;9.45;;;25.10;99.90;;;;;;5076641;28;20044;-86
2021/07/11 06:31:09;;;;;;;10.55;9.25;;;25.10;99.90;;;;;;5095729;28;20028;-92
2021/07/11 06:33:34;;;;;;;12.23;10.55;;;25.10;99.90;;;;;;5060644;28;20081;-91
2021/07/11 06:36:00;;;;;;;11.85;10.50;;;25.10;99.90;;;;;;5077242;28;20028;-87
2021/07/11 06:38:26;;;;;;;11.05;9.60;;;25.10;99.90;;;;;;5076430;28;20117;-87
2021/07/11 06:40:52;;;;;;;11.13;9.93;;;25.10;99.90;;;;;;5077144;28;20420;-85
2021/07/11 06:43:17;;;;;;;11.40;9.80;;;25.10;99.90;;;;;;5045935;28;20153;-87
2021/07/11 06:45:43;;;;;;;10.75;9.32;;;25.20;99.90;;;;;;5078453;28;20059;-89
2021/07/11 06:48:09;;;;;;;10.57;9.43;;;25.10;99.90;;;;;;5078122;28;20039;-88
2021/07/11 06:50:36;;;;;;;11.25;9.63;;;25.10;99.90;;;;;;5095822;28;20028;-88
2021/07/11 06:53:02;;;;;;;11.45;9.73;;;25.10;99.90;;;;;;5081458;28;20027;-87
2021/07/11 06:55:28;;;;;;;11.00;9.55;;;25.10;99.90;;;;;;5063813;28;20032;-88
2021/07/11 06:57:54;;;;;;;12.10;9.80;;;25.10;99.90;;;;;;5064396;28;20032;-89
2021/07/11 07:00:20;;;;;;;9.90;8.80;;;25.20;99.90;;;;;;5078637;28;20115;-90
2021/07/11 07:02:46;;;;;;;10.32;8.70;;;25.10;99.90;;;;;;5060228;28;20034;-90
2021/07/11 07:05:11;;;;;;;10.27;9.18;;;25.10;99.90;;;;;;5094071;28;20107;-90
2021/07/11 07:07:40;;;;;;;9.27;8.15;;;25.10;99.90;;;;;;5076272;28;20030;-89
2021/07/11 07:10:13;;;;;;;9.30;8.27;;;25.10;99.90;;;;;;5094223;28;20024;-84
2021/07/11 07:12:40;;;;;;;8.65;7.72;;;25.10;99.90;;;;;;5075598;28;20043;-87
2021/07/11 07:15:06;;;;;;;9.80;8.43;;;25.10;99.90;;;;;;5093819;28;20473;-85
2021/07/11 07:17:33;;;;;;;8.43;7.57;;;25.10;99.90;;;;;;5093902;28;20537;-86
2021/07/11 07:19:58;;;;;;;8.82;7.93;;;25.10;99.90;;;;;;5060141;28;20101;-84
2021/07/11 07:22:24;;;;;;;7.93;7.15;;;25.10;99.90;;;;;;5057797;28;20039;-84
2021/07/11 07:24:50;;;;;;;7.70;6.68;;;25.10;99.90;;;;;;5041721;28;20367;-84
2021/07/11 07:27:16;;;;;;;8.00;7.07;;;25.10;99.90;;;;;;5093341;28;20474;-85
2021/07/11 07:29:41;;;;;;;8.48;7.30;;;25.10;99.90;;;;;;5058362;28;20050;-85
2021/07/11 07:32:07;;;;;;;9.50;8.45;;;25.20;99.90;;;;;;5075591;28;20127;-86
2021/07/11 07:34:32;;;;;;;9.48;7.70;;;25.10;99.90;;;;;;5092946;28;20039;-85
2021/07/11 07:36:59;;;;;;;10.32;8.45;;;25.10;99.90;;;;;;5093468;28;20477;-86
2021/07/11 07:39:28;;;;;;;9.60;8.15;;;25.20;99.90;;;;;;5075309;28;20036;-87
2021/07/11 07:41:54;;;;;;;7.80;7.00;;;25.20;99.90;;;;;;5075452;28;20020;-87
2021/07/11 07:44:20;;;;;;;7.45;6.75;;;25.20;99.90;;;;;;5075024;28;20497;-87
2021/07/11 07:46:46;;;;;;;7.75;6.90;;;25.20;99.90;;;;;;5058595;28;20024;-86
2021/07/11 07:49:11;;;;;;;7.75;6.95;;;25.20;99.90;;;;;;5057447;28;20547;-87
2021/07/11 07:51:37;;;;;;;6.93;6.22;;;25.20;99.90;;;;;;5057709;28;20030;-86
2021/07/11 07:54:03;;;;;;;6.45;5.80;;;25.20;99.90;;;;;;5093355;28;20020;-88
2021/07/11 07:56:28;;;;;;;5.90;5.30;;;25.20;99.90;;;;;;5041554;28;20028;-89
2021/07/11 07:58:54;;;;;;;5.95;5.13;;;25.20;99.90;;;;;;5094171;28;20570;-89
2021/07/11 08:01:20;;;;;;;5.28;4.78;;;25.20;99.90;;;;;;5063930;28;20024;-88
2021/07/11 08:03:48;;;;;;;5.63;5.03;;;25.20;99.90;;;;;;5097123;28;20062;-89
2021/07/11 08:06:14;;;;;;;5.60;5.00;;;25.20;99.90;;;;;;5076004;28;20028;-88
2021/07/11 08:08:39;;;;;;;4.90;4.50;;;25.20;99.90;;;;;;5075171;28;20059;-88
2021/07/11 08:11:07;;;;;;;4.72;4.32;;;25.20;99.90;;;;;;5058877;28;20036;-88
2021/07/11 08:13:34;;;;;;;4.97;4.10;;;25.20;99.90;;;;;;5094373;28;20529;-88
2021/07/11 08:16:00;;;;;;;5.00;4.50;;;25.20;99.90;;;;;;5077317;28;20462;-88
2021/07/11 08:18:26;;;;;;;4.00;3.60;;;25.20;99.90;;;;;;5075750;28;20028;-88
2021/07/11 08:20:51;;;;;;;3.55;3.25;;;25.20;99.90;;;;;;5059203;28;20074;-89
2021/07/11 08:23:17;;;;;;;3.75;3.42;;;25.20;99.90;;;;;;5058437;28;20119;-89
2021/07/11 08:25:43;;;;;;;3.53;3.22;;;25.20;99.90;;;;;;5058028;28;20119;-89
2021/07/11 08:28:08;;;;;;;3.15;2.85;;;25.20;99.90;;;;;;5093132;28;20389;-89
2021/07/11 08:30:34;;;;;;;3.55;3.25;;;25.20;99.90;;;;;;5041397;28;20135;-89
2021/07/11 08:33:00;;;;;;;3.40;3.08;;;25.20;99.90;;;;;;5058052;28;20080;-89
2021/07/11 08:35:26;;;;;;;3.10;2.80;;;25.20;99.90;;;;;;5045596;28;20036;-89
2021/07/11 08:37:51;;;;;;;3.42;3.13;;;25.20;99.90;;;;;;5078465;28;20059;-89
2021/07/11 08:40:17;;;;;;;3.03;2.80;;;25.10;99.90;;;;;;5078150;28;20081;-88
2021/07/11 08:42:43;;;;;;;3.17;2.88;;;25.10;99.90;;;;;;5078146;28;20047;-88
2021/07/11 08:45:11;;;;;;;3.22;2.90;;;25.10;99.90;;;;;;5078383;28;20060;-89
2021/07/11 08:47:38;;;;;;;2.97;2.67;;;25.20;99.90;;;;;;5078137;28;20089;-89
2021/07/11 08:50:10;;;;;;;3.10;2.80;;;25.10;99.90;;;;;;5078464;28;20024;-88
2021/07/11 08:52:37;;;;;;;2.60;2.40;;;25.10;99.90;;;;;;5078361;28;20030;-88
2021/07/11 08:55:11;;;;;;;2.63;2.42;;;25.20;99.90;;;;;;5078155;28;20120;-87
2021/07/11 08:57:37;;;;;;;2.83;2.60;;;25.10;99.90;;;;;;5077857;28;20432;-87
2021/07/11 09:00:04;;;;;;;3.00;2.80;;;25.10;99.90;;;;;;5078907;28;20031;-86
2021/07/11 09:02:30;;;;;;;3.10;2.80;;;25.10;99.90;;;;;;5079028;28;20028;-87
2021/07/11 09:04:55;;;;;;;3.03;2.83;;;25.10;99.90;;;;;;5080175;28;20037;-85
2021/07/11 09:07:22;;;;;;;2.53;2.33;;;25.10;99.90;;;;;;5086421;28;20032;-91
2021/07/11 09:09:56;;;;;;;2.45;2.25;;;25.10;99.90;;;;;;5085083;28;20117;-86
2021/07/11 09:12:23;;;;;;;;;;;25.10;99.90;;;;;;5077670;28;20048;-86
2021/07/11 09:14:50;;;;;;;2.55;2.35;;;25.10;99.90;;;;;;5074954;28;19912;-87
2021/07/11 09:17:22;;;;;;;2.70;2.50;;;25.10;99.90;;;;;;5076586;28;20021;-87
2021/07/11 09:19:49;;;;;;;3.05;2.15;;;25.10;99.90;;;;;;5075184;28;20410;-87
2021/07/11 09:22:24;;;;;;;2.65;2.45;;;25.10;99.90;;;;;;5074681;28;20021;-87
2021/07/11 09:24:55;;;;;;;2.95;2.65;;;25.10;99.90;;;;;;5075629;28;20086;-87
2021/07/11 09:27:41;;;;;;;2.92;2.63;;;25.10;99.90;;;;;;5076057;28;20040;-87
2021/07/11 09:30:09;;;;;;;3.10;2.80;;;25.10;99.90;;;;;;5074476;28;20110;-87
2021/07/11 09:32:36;;;;;;;3.25;2.90;;;25.10;99.90;;;;;;5075694;28;20028;-87
2021/07/11 09:35:16;;;;;;;2.95;2.75;;;25.10;99.90;;;;;;5040822;28;20025;-87
2021/07/11 09:37:52;;;;;;;3.47;3.15;;;25.10;99.90;;;;;;5076135;28;20082;-92
2021/07/11 09:40:19;;;;;;;2.80;2.53;;;25.10;99.90;;;;;;5075855;28;20481;-89
2021/07/11 09:42:47;;;;;;;3.22;2.92;;;25.10;99.90;;;;;;5057094;28;20032;-90
2021/07/11 09:45:20;;;;;;;3.25;2.85;;;25.10;99.90;;;;;;5074344;28;20024;-91
2021/07/11 09:47:48;;;;;;;3.75;2.90;;;25.10;99.90;;;;;;5074008;28;20044;-90
2021/07/11 09:50:20;;;;;;;3.05;2.75;;;25.10;99.90;;;;;;5075436;28;20087;-90
2021/07/11 09:52:48;;;;;;;3.20;2.90;;;25.20;99.90;;;;;;5057436;28;20033;-88
2021/07/11 09:55:20;;;;;;;3.33;3.03;;;25.10;99.90;;;;;;5074339;28;20043;-88
2021/07/11 09:57:56;;;;;;;3.90;3.22;;;25.20;99.90;;;;;;5074979;28;20107;-91
2021/07/11 10:00:27;;;;;;;3.33;3.03;;;25.10;99.90;;;;;;5073912;28;20032;-87
2021/07/11 10:03:05;;;;;;;3.58;3.17;;;25.10;99.90;;;;;;5073475;28;20115;-88
2021/07/11 10:05:32;;;;;;;3.10;2.80;;;25.10;99.90;;;;;;5075380;28;20024;-90
2021/07/11 10:07:58;;;;;;;3.25;2.95;;;25.20;99.90;;;;;;5075070;28;20037;-91
2021/07/11 10:10:27;;;;;;;4.25;3.33;;;25.10;99.90;;;;;;5074570;28;20024;-90
2021/07/11 10:12:54;;;;;;;3.30;3.00;;;25.20;99.90;;;;;;5084567;28;20037;-89
2021/07/11 10:15:22;;;;;;;3.30;3.00;;;25.20;99.90;;;;;;5096906;28;20453;-89
2021/07/11 10:17:49;;;;;;;4.15;3.15;;;25.20;99.90;;;;;;5083942;28;20158;-89
2021/07/11 10:20:18;;;;;;;3.35;3.05;;;25.20;99.90;;;;;;5079523;28;20536;-91
2021/07/11 10:22:50;;;;;;;3.58;3.22;;;25.20;99.90;;;;;;5095806;28;20088;-90
2021/07/11 10:25:20;;;;;;;3.53;3.13;;;25.20;99.90;;;;;;5095825;28;20027;-91
2021/07/11 10:27:48;;;;;;;4.47;3.92;;;25.20;99.90;;;;;;5077415;28;20032;-90
2021/07/11 10:30:15;;;;;;;4.32;3.25;;;25.20;99.90;;;;;;5095724;28;20032;-90
2021/07/11 10:32:41;;;;;;;3.67;3.35;;;25.20;99.90;;;;;;5061006;28;20032;-90
2021/07/11 10:35:12;;;;;;;3.67;3.35;;;25.20;99.90;;;;;;5095651;28;20036;-89
2021/07/11 10:37:56;;;;;;;3.47;3.17;;;25.20;99.90;;;;;;5094912;28;20046;-90
2021/07/11 10:40:29;;;;;;;3.63;2.90;;;25.20;99.90;;;;;;5060824;28;20074;-90
2021/07/11 10:42:55;;;;;;;3.58;3.22;;;25.30;99.90;;;;;;5077804;28;20035;-90
2021/07/11 10:45:21;;;;;;;4.55;3.13;;;25.30;99.90;;;;;;5043731;28;20083;-90
2021/07/11 10:47:47;;;;;;;3.80;3.13;;;25.30;99.90;;;;;;5077718;28;20028;-92
2021/07/11 10:50:27;;;;;;;3.83;3.35;;;25.20;99.90;;;;;;5076795;28;20144;-89
2021/07/11 10:52:55;;;;;;;3.40;3.10;;;25.30;99.90;;;;;;5094540;28;20028;-88
2021/07/11 10:55:21;;;;;;;3.28;2.97;;;25.30;99.90;;;;;;5060610;28;20028;-89
2021/07/11 10:57:47;;;;;;;3.28;2.97;;;25.30;99.90;;;;;;5077218;28;20035;-90
2021/07/11 11:00:19;;;;;;;3.83;3.28;;;25.30;99.90;;;;;;5085306;28;20031;-90
2021/07/11 11:02:48;;;;;;;2.80;2.58;;;25.30;99.90;;;;;;5079181;28;20057;-90
2021/07/11 11:05:20;;;;;;;3.28;2.97;;;25.30;99.90;;;;;;5094649;28;20476;-89
2021/07/11 11:08:08;;;;;;;3.33;3.03;;;25.30;99.90;;;;;;5094643;28;20028;-90
2021/07/11 11:10:36;;;;;;;3.35;3.05;;;25.30;99.90;;;;;;5075953;28;20027;-89
2021/07/11 11:13:24;;;;;;;3.25;2.95;;;25.30;99.90;;;;;;5071836;28;20057;-90
2021/07/11 11:16:01;;;;;;;4.00;3.50;;;25.30;99.90;;;;;;5074262;28;20017;-89
2021/07/11 11:18:35;;;;;;;3.35;3.05;;;25.30;99.90;;;;;;5074821;28;20084;-90
2021/07/11 11:21:05;;;;;;;4.55;3.42;;;25.30;99.90;;;;;;5078175;28;20071;-89
2021/07/11 11:23:33;;;;;;;3.50;3.20;;;25.30;99.90;;;;;;5085959;28;20051;-90
2021/07/11 11:25:59;;;;;;;3.40;3.10;;;25.30;99.90;;;;;;5080611;28;20025;-90
2021/07/11 11:28:35;;;;;;;3.63;3.28;;;25.30;99.90;;;;;;5074076;28;20032;-90
2021/07/11 11:31:06;;;;;;;3.92;3.53;;;25.30;99.90;;;;;;5074384;28;20028;-91
2021/07/11 11:33:56;;;;;;;3.55;3.25;;;25.30;99.90;;;;;;5073937;28;20386;-88
2021/07/11 11:36:24;;;;;;;3.53;3.22;;;25.30;99.90;;;;;;5055590;28;20033;-91
2021/07/11 11:38:53;;;;;;;3.70;3.40;;;25.30;99.90;;;;;;5072971;28;20044;-91
2021/07/11 11:41:21;;;;;;;3.92;3.53;;;25.30;99.90;;;;;;5073940;28;20458;-91
2021/07/11 11:43:48;;;;;;;4.10;3.65;;;25.30;99.90;;;;;;5073636;28;20524;-91
2021/07/11 11:46:29;;;;;;;4.40;4.00;;;25.30;99.90;;;;;;5074376;28;20421;-90
2021/07/11 11:48:57;;;;;;;3.90;3.38;;;25.30;99.90;;;;;;5073883;28;20036;-93
2021/07/11 11:51:23;;;;;;;4.00;3.60;;;25.30;99.90;;;;;;5074934;28;20388;-92
2021/07/11 11:53:49;;;;;;;3.85;3.53;;;25.30;99.90;;;;;;5073477;28;20092;-90
2021/07/11 11:56:15;;;;;;;3.70;3.30;;;25.30;99.90;;;;;;5073756;28;20060;-92
2021/07/11 11:58:41;;;;;;;4.40;3.65;;;25.30;99.90;;;;;;5073612;28;20028;-92
2021/07/11 12:01:11;;;;;;;3.75;3.40;;;25.40;99.90;;;;;;5056923;28;20037;-91
2021/07/11 12:03:48;;;;;;;3.40;3.10;;;25.40;99.90;;;;;;5074062;28;20056;-92
2021/07/11 12:06:16;;;;;;;3.85;3.45;;;25.40;99.90;;;;;;5074532;28;20086;-91
2021/07/11 12:08:44;;;;;;;4.65;3.92;;;25.30;99.90;;;;;;5076185;28;20032;-93
2021/07/11 12:11:11;;;;;;;4.22;3.83;;;25.40;99.90;;;;;;5078162;28;20074;-90
2021/07/11 12:13:38;;;;;;;4.00;3.60;;;25.40;99.90;;;;;;5091421;28;20056;-90
2021/07/11 12:16:11;;;;;;;3.85;3.53;;;25.40;99.90;;;;;;5097988;28;20481;-93
2021/07/11 12:18:57;;;;;;;3.78;3.45;;;25.40;99.90;;;;;;5100176;28;20036;-92
2021/07/11 12:21:28;;;;;;;4.18;3.78;;;25.40;99.90;;;;;;5088172;28;20024;-94
2021/07/11 12:27:13;;;;;;;3.40;3.10;;;25.40;99.90;;;;;;5038945;28;20029;-93
2021/07/11 12:29:39;;;;;;;3.38;3.08;;;25.40;99.90;;;;;;4989156;28;20045;-91
2021/07/11 12:32:06;;;;;;;3.10;2.75;;;25.50;99.90;;;;;;5006329;28;20044;-90
2021/07/11 12:34:33;;;;;;;3.00;2.70;;;25.50;99.90;;;;;;5019364;28;20029;-90
2021/07/11 12:40:36;;;;;;;3.60;3.30;;;25.50;99.90;;;;;;4977991;28;20034;-90
2021/07/11 12:46:32;;;;;;;3.72;3.42;;;25.50;99.90;;;;;;4978178;28;20136;-91
2021/07/11 12:52:24;;;;;;;4.07;3.67;;;25.50;99.90;;;;;;4987419;28;20456;-91
2021/07/11 12:59:09;;;;;;;3.85;3.53;;;25.50;99.90;;;;;;5000483;28;20037;-90